createdAt,value
2023-04-08T00:00:16.055Z,14.90
2023-04-08T00:02:43.454Z,17.02
2023-04-08T00:05:10.858Z,15.38
2023-04-08T00:07:37.903Z,18.40
2023-04-08T00:10:06.686Z,16.35
2023-04-08T00:12:33.868Z,14.07
2023-04-08T00:15:00.817Z,16.63
2023-04-08T00:17:27.829Z,12.65
2023-04-08T00:19:56.038Z,14.93
2023-04-08T00:22:22.982Z,15.15
2023-04-08T00:24:49.998Z,25.45
2023-04-08T00:27:17.023Z,19.67
2023-04-08T00:29:44.118Z,14.70
2023-04-08T00:32:11.116Z,16.55
2023-04-08T00:34:38.544Z,17.40
2023-04-08T00:37:05.667Z,17.80
2023-04-08T00:39:32.994Z,17.17
2023-04-08T00:42:01.988Z,20.52
2023-04-08T00:44:29.449Z,12.80
2023-04-08T00:46:57.449Z,12.73
2023-04-08T00:49:26.890Z,14.50
2023-04-08T00:51:55.335Z,22.00
2023-04-08T00:54:22.319Z,14.13
2023-04-08T00:56:49.330Z,18.88
2023-04-08T00:59:17.978Z,15.90
2023-04-08T01:02:12.301Z,20.42
2023-04-08T01:05:03.705Z,14.98
2023-04-08T01:07:34.390Z,15.02
2023-04-08T01:10:29.268Z,16.83
2023-04-08T01:13:08.430Z,17.50
2023-04-08T01:15:39.169Z,15.43
2023-04-08T01:18:08.168Z,17.00
2023-04-08T01:20:35.695Z,17.85
2023-04-08T01:23:43.326Z,18.45
2023-04-08T01:26:22.738Z,17.23
2023-04-08T01:28:55.586Z,21.85
2023-04-08T01:31:26.301Z,13.02
2023-04-08T01:33:54.160Z,20.27
2023-04-08T01:36:24.239Z,17.45
2023-04-08T01:38:51.661Z,17.65
2023-04-08T01:41:19.888Z,22.75
2023-04-08T01:43:47.732Z,17.67
2023-04-08T01:46:16.073Z,16.30
2023-04-08T01:48:43.727Z,13.70
2023-04-08T01:51:12.474Z,15.88
2023-04-08T01:53:39.662Z,16.27
2023-04-08T01:56:12.133Z,14.30
2023-04-08T01:58:49.105Z,15.23
2023-04-08T02:01:19.455Z,23.48
2023-04-08T02:03:47.648Z,14.88
2023-04-08T02:06:14.957Z,15.50
2023-04-08T02:08:42.028Z,17.30
2023-04-08T02:11:09.012Z,15.93
2023-04-08T02:13:36.812Z,19.77
2023-04-08T02:16:19.858Z,18.25
2023-04-08T02:18:56.661Z,16.23
2023-04-08T02:21:33.189Z,10.25
2023-04-08T02:24:05.367Z,18.30
2023-04-08T02:26:36.075Z,17.77
2023-04-08T02:29:05.804Z,18.92
2023-04-08T02:31:33.916Z,23.05
2023-04-08T02:34:01.460Z,18.35
2023-04-08T02:36:33.565Z,20.23
2023-04-08T02:39:04.151Z,19.58
2023-04-08T02:41:31.561Z,17.80
2023-04-08T02:43:58.929Z,17.40
2023-04-08T02:46:25.941Z,22.48
2023-04-08T02:48:53.922Z,19.67
2023-04-08T02:51:21.218Z,16.70
2023-04-08T02:53:48.160Z,14.40
2023-04-08T02:56:15.122Z,15.32
2023-04-08T02:58:42.118Z,19.10
2023-04-08T03:01:09.429Z,18.50
2023-04-08T03:03:36.745Z,19.05
2023-04-08T03:06:05.420Z,20.05
2023-04-08T03:08:33.766Z,20.92
2023-04-08T03:11:00.920Z,22.55
2023-04-08T03:13:29.692Z,16.08
2023-04-08T03:15:56.684Z,15.77
2023-04-08T03:18:23.620Z,18.33
2023-04-08T03:20:52.003Z,19.98
2023-04-08T03:23:18.999Z,22.35
2023-04-08T03:25:46.163Z,19.45
2023-04-08T03:28:13.118Z,17.02
2023-04-08T03:30:40.687Z,22.50
2023-04-08T03:33:08.243Z,26.80
2023-04-08T03:35:35.603Z,19.17
2023-04-08T03:38:02.612Z,17.10
2023-04-08T03:40:29.522Z,29.77
2023-04-08T03:42:56.520Z,17.00
2023-04-08T03:45:23.817Z,20.45
2023-04-08T03:47:50.804Z,18.80
2023-04-08T03:50:17.745Z,17.65
2023-04-08T03:52:44.743Z,19.38
2023-04-08T03:55:11.681Z,17.58
2023-04-08T03:57:38.685Z,19.65
2023-04-08T04:00:06.660Z,16.30
2023-04-08T04:02:39.283Z,19.85
2023-04-08T04:05:06.870Z,17.30
2023-04-08T04:07:33.799Z,18.75
2023-04-08T04:10:00.780Z,20.10
2023-04-08T04:12:27.802Z,23.58
2023-04-08T04:14:54.808Z,23.00
2023-04-08T04:17:22.430Z,27.05
2023-04-08T04:19:49.385Z,19.27
2023-04-08T04:22:16.313Z,20.63
2023-04-08T04:24:47.712Z,16.65
2023-04-08T04:27:17.329Z,27.88
2023-04-08T04:29:44.561Z,22.58
2023-04-08T04:32:13.017Z,23.33
2023-04-08T04:34:40.001Z,18.55
2023-04-08T04:37:07.416Z,20.25
2023-04-08T04:39:34.336Z,19.70
2023-04-08T04:42:01.405Z,26.27
2023-04-08T04:44:28.408Z,23.88
2023-04-08T04:46:55.375Z,20.45
2023-04-08T04:49:22.687Z,22.73
2023-04-08T04:51:49.636Z,22.70
2023-04-08T04:54:16.850Z,22.95
2023-04-08T04:56:43.811Z,24.13
2023-04-08T04:59:11.053Z,22.08
2023-04-08T05:01:38.220Z,28.08
2023-04-08T05:04:05.459Z,24.42
2023-04-08T05:06:32.628Z,21.88
2023-04-08T05:08:59.650Z,22.70
2023-04-08T05:11:26.600Z,25.48
2023-04-08T05:13:53.555Z,19.60
2023-04-08T05:16:20.504Z,22.13
2023-04-08T05:18:47.599Z,20.40
2023-04-08T05:21:14.589Z,25.05
2023-04-08T05:23:41.588Z,24.83
2023-04-08T05:26:08.949Z,20.55
2023-04-08T05:28:36.681Z,23.35
2023-04-08T05:31:03.787Z,25.80
2023-04-08T05:33:30.961Z,16.58
2023-04-08T05:35:58.068Z,23.70
2023-04-08T05:38:25.160Z,23.05
2023-04-08T05:40:52.517Z,25.05
2023-04-08T05:43:20.060Z,20.48
2023-04-08T05:45:47.178Z,44.97
2023-04-08T05:48:14.285Z,24.25
2023-04-08T05:50:42.632Z,29.65
2023-04-08T05:53:10.501Z,26.67
2023-04-08T05:55:37.551Z,24.92
2023-04-08T05:58:04.438Z,22.88
2023-04-08T06:00:31.455Z,26.20
2023-04-08T06:02:58.405Z,24.27
2023-04-08T06:05:25.997Z,22.02
2023-04-08T06:07:52.924Z,22.08
2023-04-08T06:10:20.133Z,23.83
2023-04-08T06:12:47.028Z,25.58
2023-04-08T06:15:14.001Z,20.92
2023-04-08T06:17:41.054Z,19.98
2023-04-08T06:20:11.293Z,26.30
2023-04-08T06:22:39.340Z,22.52
2023-04-08T06:25:07.293Z,21.95
2023-04-08T06:27:34.253Z,22.27
2023-04-08T06:30:01.588Z,26.27
2023-04-08T06:32:28.659Z,21.15
2023-04-08T06:34:55.617Z,22.83
2023-04-08T06:37:22.930Z,25.85
2023-04-08T06:39:51.226Z,21.42
2023-04-08T06:42:18.208Z,15.60
2023-04-08T06:44:58.977Z,21.33
2023-04-08T06:47:26.208Z,23.63
2023-04-08T06:49:54.363Z,21.13
2023-04-08T06:52:21.686Z,20.95
2023-04-08T06:54:48.660Z,16.52
2023-04-08T06:57:15.608Z,19.52
2023-04-08T06:59:42.897Z,19.75
2023-04-08T07:02:09.918Z,15.95
2023-04-08T07:04:36.950Z,17.95
2023-04-08T07:07:04.359Z,14.15
2023-04-08T07:09:31.514Z,21.88
2023-04-08T07:11:59.903Z,13.35
2023-04-08T07:14:26.929Z,22.60
2023-04-08T07:16:53.977Z,17.63
2023-04-08T07:19:21.084Z,15.07
2023-04-08T07:21:48.243Z,19.42
2023-04-08T07:24:16.194Z,17.98
2023-04-08T07:26:43.636Z,16.88
2023-04-08T07:29:11.177Z,19.95
2023-04-08T07:31:38.773Z,18.63
2023-04-08T07:34:05.827Z,19.95
2023-04-08T07:36:33.296Z,17.83
2023-04-08T07:39:00.750Z,20.75
2023-04-08T07:41:28.328Z,17.67
2023-04-08T07:43:57.325Z,19.85
2023-04-08T07:46:24.743Z,22.13
2023-04-08T07:48:52.357Z,18.73
2023-04-08T07:51:20.438Z,19.52
2023-04-08T07:53:48.972Z,18.48
2023-04-08T07:56:18.520Z,17.40
2023-04-08T07:58:51.288Z,19.17
2023-04-08T08:01:22.766Z,24.88
2023-04-08T08:03:52.628Z,20.85
2023-04-08T08:06:21.254Z,17.02
2023-04-08T08:08:48.767Z,15.00
2023-04-08T08:11:16.201Z,18.58
2023-04-08T08:13:43.687Z,17.17
2023-04-08T08:16:12.350Z,14.35
2023-04-08T08:18:41.426Z,16.83
2023-04-08T08:21:09.755Z,17.90
2023-04-08T08:23:37.926Z,22.23
2023-04-08T08:26:10.961Z,16.80
2023-04-08T08:28:39.140Z,14.63
2023-04-08T08:31:06.702Z,17.02
2023-04-08T08:33:34.421Z,18.23
2023-04-08T08:36:05.662Z,13.05
2023-04-08T08:38:33.218Z,12.45
2023-04-08T08:41:02.207Z,11.30
2023-04-08T08:43:30.116Z,12.52
2023-04-08T08:45:58.408Z,12.65
2023-04-08T08:48:26.959Z,15.63
2023-04-08T08:50:54.453Z,15.23
2023-04-08T08:53:23.400Z,16.10
2023-04-08T08:56:16.424Z,14.25
2023-04-08T08:58:39.191Z,14.80
2023-04-08T09:01:45.594Z,11.65
2023-04-08T09:04:20.892Z,14.75
2023-04-08T09:06:51.089Z,12.60
2023-04-08T09:09:18.378Z,13.07
2023-04-08T09:11:46.858Z,10.10
2023-04-08T09:14:23.945Z,10.52
2023-04-08T09:16:52.378Z,11.90
2023-04-08T09:19:19.560Z,10.55
2023-04-08T09:21:47.744Z,10.88
2023-04-08T09:24:31.294Z,10.10
2023-04-08T09:26:58.423Z,11.13
2023-04-08T09:29:32.455Z,13.70
2023-04-08T09:32:02.098Z,16.60
2023-04-08T09:34:32.630Z,11.60
2023-04-08T09:36:59.640Z,11.20
2023-04-08T09:39:26.862Z,7.72
2023-04-08T09:41:57.293Z,11.63
2023-04-08T09:44:28.650Z,10.88
2023-04-08T09:47:18.634Z,13.63
2023-04-08T09:49:53.933Z,10.85
2023-04-08T09:52:42.206Z,9.30
2023-04-08T09:55:12.493Z,13.90
2023-04-08T09:57:55.738Z,10.50
2023-04-08T10:00:31.196Z,9.23
2023-04-08T10:03:14.238Z,10.02
2023-04-08T10:05:43.472Z,10.05
2023-04-08T10:08:11.582Z,9.63
2023-04-08T10:10:42.633Z,10.23
2023-04-08T10:13:10.269Z,10.70
2023-04-08T10:15:39.508Z,7.13
2023-04-08T10:18:09.442Z,10.52
2023-04-08T10:20:36.522Z,8.75
2023-04-08T10:23:04.811Z,10.10
2023-04-08T10:25:42.430Z,8.82
2023-04-08T10:28:12.281Z,8.82
2023-04-08T10:30:52.374Z,11.75
2023-04-08T10:33:33.160Z,9.00
2023-04-08T10:36:01.018Z,10.30
2023-04-08T10:38:28.745Z,8.98
2023-04-08T10:40:55.808Z,12.48
2023-04-08T10:43:24.188Z,11.30
2023-04-08T10:45:54.079Z,10.05
2023-04-08T10:48:25.424Z,10.23
2023-04-08T10:51:03.932Z,10.40
2023-04-08T10:53:34.706Z,10.20
2023-04-08T10:56:14.944Z,14.82
2023-04-08T10:58:59.851Z,9.50
2023-04-08T11:01:27.856Z,12.77
2023-04-08T11:03:55.086Z,10.20
2023-04-08T11:06:23.408Z,10.10
2023-04-08T11:08:50.456Z,10.77
2023-04-08T11:11:19.155Z,11.20
2023-04-08T11:13:53.254Z,10.60
2023-04-08T11:16:24.240Z,11.65
2023-04-08T11:18:51.969Z,10.25
2023-04-08T11:21:20.265Z,12.85
2023-04-08T11:23:51.325Z,12.27
2023-04-08T11:26:19.896Z,9.00
2023-04-08T11:28:49.227Z,10.70
2023-04-08T11:31:16.831Z,10.48
2023-04-08T11:33:49.956Z,9.02
2023-04-08T11:36:21.737Z,10.65
2023-04-08T11:38:49.266Z,10.40
2023-04-08T11:41:16.757Z,9.23
2023-04-08T11:43:54.885Z,13.20
2023-04-08T11:46:22.753Z,11.18
2023-04-08T11:49:12.732Z,9.38
2023-04-08T11:51:59.535Z,10.23
2023-04-08T11:54:32.044Z,10.18
2023-04-08T11:57:03.571Z,10.65
2023-04-08T11:59:31.501Z,9.60
2023-04-08T12:01:59.534Z,10.27
2023-04-08T12:04:26.780Z,9.90
2023-04-08T12:06:54.654Z,10.77
2023-04-08T12:09:22.760Z,9.15
2023-04-08T12:11:49.848Z,8.98
2023-04-08T12:14:16.896Z,10.90
2023-04-08T12:16:44.017Z,11.55
2023-04-08T12:19:11.462Z,10.32
2023-04-08T12:21:38.624Z,8.35
2023-04-08T12:24:06.131Z,11.00
2023-04-08T12:26:34.002Z,8.30
2023-04-08T12:29:02.455Z,10.88
2023-04-08T12:31:29.590Z,8.38
2023-04-08T12:33:57.733Z,9.88
2023-04-08T12:36:24.772Z,11.75
2023-04-08T12:38:51.990Z,11.05
2023-04-08T12:41:19.153Z,9.88
2023-04-08T12:43:46.196Z,10.32
2023-04-08T12:46:13.457Z,19.08
2023-04-08T12:48:40.828Z,12.93
2023-04-08T12:51:10.367Z,12.27
2023-04-08T12:53:37.633Z,7.18
2023-04-08T12:56:07.712Z,11.32
2023-04-08T12:58:34.841Z,12.45
2023-04-08T13:01:01.853Z,12.73
2023-04-08T13:03:31.879Z,12.68
2023-04-08T13:05:59.178Z,10.80
2023-04-08T13:08:26.607Z,12.55
2023-04-08T13:10:54.594Z,13.35
2023-04-08T13:13:21.593Z,12.05
2023-04-08T13:15:49.131Z,12.15
2023-04-08T13:18:16.602Z,8.07
2023-04-08T13:20:43.541Z,8.48
2023-04-08T13:23:10.491Z,10.13
2023-04-08T13:25:37.413Z,10.20
2023-04-08T13:28:04.605Z,9.25
2023-04-08T13:30:31.599Z,10.38
2023-04-08T13:32:58.796Z,21.88
2023-04-08T13:35:26.844Z,14.75
2023-04-08T13:37:53.798Z,23.27
2023-04-08T13:40:21.383Z,69.75
2023-04-08T13:42:48.824Z,25.17
2023-04-08T13:45:15.773Z,23.33
2023-04-08T13:47:43.223Z,13.23
2023-04-08T13:50:10.560Z,22.88
2023-04-08T13:52:37.654Z,38.08
2023-04-08T13:55:05.097Z,37.53
2023-04-08T13:57:32.041Z,15.20
2023-04-08T13:59:59.040Z,14.90
2023-04-08T14:02:26.092Z,12.07
2023-04-08T14:04:53.601Z,13.85
2023-04-08T14:07:21.912Z,9.18
2023-04-08T14:09:48.883Z,10.02
2023-04-08T14:12:15.990Z,11.68
2023-04-08T14:14:42.928Z,11.32
2023-04-08T14:17:09.950Z,9.63
2023-04-08T14:19:37.045Z,20.98
2023-04-08T14:22:03.989Z,10.73
2023-04-08T14:24:30.931Z,8.68
2023-04-08T14:26:57.967Z,10.20
2023-04-08T14:29:26.504Z,8.48
2023-04-08T14:31:54.736Z,7.72
2023-04-08T14:34:21.676Z,9.05
2023-04-08T14:36:50.041Z,14.23
2023-04-08T14:39:17.010Z,8.20
2023-04-08T14:41:43.985Z,8.30
2023-04-08T14:44:10.845Z,9.38
2023-04-08T14:46:38.402Z,9.30
2023-04-08T14:49:06.052Z,9.00
2023-04-08T14:51:33.554Z,10.38
2023-04-08T14:54:02.087Z,7.38
2023-04-08T14:56:28.995Z,9.48
2023-04-08T14:58:56.272Z,8.38
2023-04-08T15:01:23.170Z,9.43
2023-04-08T15:03:50.461Z,8.45
2023-04-08T15:06:18.651Z,6.22
2023-04-08T15:08:45.964Z,9.35
2023-04-08T15:11:13.147Z,7.22
2023-04-08T15:13:41.090Z,6.85
2023-04-08T15:16:08.125Z,6.47
2023-04-08T15:18:37.407Z,7.30
2023-04-08T15:21:04.914Z,5.85
2023-04-08T15:23:33.429Z,10.27
2023-04-08T15:26:00.554Z,7.00
2023-04-08T15:28:28.114Z,6.28
2023-04-08T15:30:55.302Z,5.65
2023-04-08T15:33:22.345Z,6.78
2023-04-08T15:35:49.555Z,8.23
2023-04-08T15:38:20.195Z,8.23
2023-04-08T15:40:48.490Z,10.40
2023-04-08T15:43:15.367Z,6.43
2023-04-08T15:45:44.164Z,6.45
2023-04-08T15:48:14.116Z,8.93
2023-04-08T15:50:42.150Z,5.68
2023-04-08T15:53:09.166Z,12.48
2023-04-08T15:55:40.805Z,11.77
2023-04-08T16:00:35.028Z,7.68
2023-04-08T16:03:02.255Z,6.97
2023-04-08T16:05:30.364Z,8.70
2023-04-08T16:07:58.236Z,6.57
2023-04-08T16:10:25.413Z,7.47
2023-04-08T16:12:53.195Z,7.47
2023-04-08T16:15:20.219Z,12.32
2023-04-08T16:17:53.539Z,7.65
2023-04-08T16:20:21.760Z,8.15
2023-04-08T16:22:50.689Z,10.38
2023-04-08T16:25:17.805Z,13.40
2023-04-08T16:27:47.511Z,9.73
2023-04-08T16:30:15.057Z,11.40
2023-04-08T16:32:42.197Z,9.50
2023-04-08T16:35:09.587Z,6.43
2023-04-08T16:37:36.709Z,8.02
2023-04-08T16:40:04.295Z,7.28
2023-04-08T16:42:32.963Z,8.95
2023-04-08T16:45:00.306Z,5.65
2023-04-08T16:47:27.633Z,7.15
2023-04-08T16:49:55.033Z,8.85
2023-04-08T16:52:22.038Z,6.68
2023-04-08T16:54:49.135Z,6.68
2023-04-08T16:57:16.853Z,6.72
2023-04-08T16:59:43.979Z,8.07
2023-04-08T17:02:11.096Z,9.27
2023-04-08T17:04:38.627Z,11.05
2023-04-08T17:07:05.630Z,7.72
2023-04-08T17:09:32.624Z,8.02
2023-04-08T17:11:59.655Z,8.02
2023-04-08T17:14:29.813Z,8.07
2023-04-08T17:16:57.260Z,7.90
2023-04-08T17:19:26.555Z,7.78
2023-04-08T17:21:53.554Z,9.65
2023-04-08T17:24:20.714Z,6.93
2023-04-08T17:26:48.222Z,7.78
2023-04-08T17:29:15.163Z,6.75
2023-04-08T17:31:44.346Z,8.85
2023-04-08T17:34:11.619Z,7.13
2023-04-08T17:36:40.471Z,5.30
2023-04-08T17:39:08.260Z,6.47
2023-04-08T17:41:40.432Z,8.02
2023-04-08T17:44:08.464Z,8.02
2023-04-08T17:46:35.428Z,5.88
2023-04-08T17:49:02.504Z,6.93
2023-04-08T17:51:31.076Z,9.70
2023-04-08T17:53:57.997Z,16.45
2023-04-08T17:56:25.168Z,13.10
2023-04-08T17:58:52.478Z,11.35
2023-04-08T18:01:19.861Z,8.25
2023-04-08T18:03:47.726Z,10.18
2023-04-08T18:06:14.782Z,6.22
2023-04-08T18:08:41.709Z,8.95
2023-04-08T18:11:08.678Z,7.28
2023-04-08T18:13:36.831Z,9.35
2023-04-08T18:16:03.927Z,8.75
2023-04-08T18:18:31.090Z,7.07
2023-04-08T18:20:58.146Z,5.80
2023-04-08T18:23:25.236Z,6.28
2023-04-08T18:25:52.623Z,8.25
2023-04-08T18:28:19.635Z,10.18
2023-04-08T18:30:51.688Z,5.63
2023-04-08T18:33:19.015Z,6.15
2023-04-08T18:35:47.638Z,6.85
2023-04-08T18:38:14.759Z,6.72
2023-04-08T18:40:42.398Z,6.63
2023-04-08T18:43:09.992Z,6.13
2023-04-08T18:45:36.976Z,6.22
2023-04-08T18:48:06.561Z,5.45
2023-04-08T18:50:33.625Z,8.75
2023-04-08T18:53:01.032Z,5.63
2023-04-08T18:55:28.047Z,6.82
2023-04-08T18:57:56.756Z,7.05
2023-04-08T19:00:24.009Z,4.22
2023-04-08T19:02:53.990Z,4.32
2023-04-08T19:05:24.017Z,3.95
2023-04-08T19:07:51.409Z,6.07
2023-04-08T19:10:18.856Z,5.10
2023-04-08T19:12:46.827Z,7.43
2023-04-08T19:15:15.810Z,8.80
2023-04-08T19:17:43.118Z,8.45
2023-04-08T19:20:10.639Z,6.65
2023-04-08T19:22:38.621Z,5.00
2023-04-08T19:25:10.069Z,7.13
2023-04-08T19:27:37.704Z,6.85
2023-04-08T19:30:06.016Z,7.55
2023-04-08T19:32:36.892Z,4.43
2023-04-08T19:35:05.625Z,6.72
2023-04-08T19:37:32.630Z,5.57
2023-04-08T19:40:01.036Z,7.15
2023-04-08T19:42:28.532Z,5.30
2023-04-08T19:44:56.570Z,4.97
2023-04-08T19:47:23.755Z,4.70
2023-04-08T19:49:50.941Z,5.60
2023-04-08T19:52:20.584Z,7.25
2023-04-08T19:54:51.461Z,6.15
2023-04-08T19:57:18.870Z,5.97
2023-04-08T19:59:48.000Z,5.25
2023-04-08T20:02:15.477Z,6.82
2023-04-08T20:04:42.937Z,7.13
2023-04-08T20:07:10.204Z,6.90
2023-04-08T20:09:38.485Z,7.72
2023-04-08T20:12:07.590Z,8.75
2023-04-08T20:14:36.554Z,8.77
2023-04-08T20:17:04.565Z,8.65
2023-04-08T20:19:31.775Z,5.20
2023-04-08T20:22:00.218Z,13.57
2023-04-08T20:24:28.019Z,8.30
2023-04-08T20:26:55.585Z,6.20
2023-04-08T20:29:22.679Z,6.13
2023-04-08T20:31:52.652Z,7.50
2023-04-08T20:34:21.035Z,7.28
2023-04-08T20:36:48.176Z,8.15
2023-04-08T20:39:15.558Z,10.02
2023-04-08T20:41:42.926Z,8.05
2023-04-08T20:44:10.795Z,7.82
2023-04-08T20:46:39.725Z,8.02
2023-04-08T20:49:09.208Z,10.05
2023-04-08T20:51:36.339Z,6.50
2023-04-08T20:54:03.809Z,11.75
2023-04-08T20:56:31.040Z,11.48
2023-04-08T20:59:00.161Z,11.10
2023-04-08T21:01:27.589Z,7.53
2023-04-08T21:03:54.780Z,7.05
2023-04-08T21:06:22.522Z,8.07
2023-04-08T21:08:52.373Z,8.73
2023-04-08T21:11:19.839Z,8.10
2023-04-08T21:13:48.919Z,7.18
2023-04-08T21:16:16.627Z,6.63
2023-04-08T21:18:43.636Z,10.10
2023-04-08T21:21:14.024Z,10.77
2023-04-08T21:23:41.410Z,9.45
2023-04-08T21:26:14.142Z,9.52
2023-04-08T21:28:41.449Z,9.35
2023-04-08T21:31:12.948Z,7.95
2023-04-08T21:33:40.228Z,9.05
2023-04-08T21:36:07.841Z,12.80
2023-04-08T21:38:35.517Z,12.85
2023-04-08T21:41:02.663Z,9.63
2023-04-08T21:43:30.880Z,7.63
2023-04-08T21:45:58.155Z,13.10
2023-04-08T21:48:25.466Z,9.40
2023-04-08T21:50:53.276Z,9.85
2023-04-08T21:53:22.882Z,12.00
2023-04-08T21:55:49.933Z,11.70
2023-04-08T21:58:17.571Z,9.02
2023-04-08T22:00:44.877Z,10.73
2023-04-08T22:03:12.241Z,11.23
2023-04-08T22:05:39.440Z,9.63
2023-04-08T22:08:06.878Z,9.02
2023-04-08T22:10:34.013Z,9.52
2023-04-08T22:13:01.013Z,11.40
2023-04-08T22:15:29.394Z,9.85
2023-04-08T22:17:56.447Z,9.05
2023-04-08T22:20:23.404Z,12.55
2023-04-08T22:22:50.917Z,8.63
2023-04-08T22:25:18.841Z,12.85
2023-04-08T22:27:46.053Z,16.50
2023-04-08T22:30:13.290Z,13.30
2023-04-08T22:32:40.553Z,12.73
2023-04-08T22:35:07.970Z,11.20
2023-04-08T22:37:35.686Z,11.68
2023-04-08T22:40:03.888Z,11.20
2023-04-08T22:42:30.875Z,11.70
2023-04-08T22:44:58.596Z,10.43
2023-04-08T22:47:26.059Z,11.43
2023-04-08T22:49:53.183Z,9.82
2023-04-08T22:52:21.588Z,10.15
2023-04-08T22:54:48.641Z,10.02
2023-04-08T22:57:15.950Z,10.55
2023-04-08T22:59:43.109Z,9.98
2023-04-08T23:02:10.389Z,13.13
2023-04-08T23:04:37.374Z,12.73
2023-04-08T23:07:04.328Z,10.88
2023-04-08T23:09:31.363Z,12.95
2023-04-08T23:11:58.401Z,11.85
2023-04-08T23:14:25.360Z,12.55
2023-04-08T23:16:52.571Z,12.80
2023-04-08T23:19:19.689Z,13.25
2023-04-08T23:21:46.645Z,10.48
2023-04-08T23:24:13.581Z,11.63
2023-04-08T23:26:40.758Z,11.68
2023-04-08T23:29:07.887Z,10.75
2023-04-08T23:31:35.635Z,10.80
2023-04-08T23:34:02.669Z,11.05
2023-04-08T23:36:29.641Z,10.52
2023-04-08T23:38:56.714Z,10.82
2023-04-08T23:41:23.736Z,10.73
2023-04-08T23:43:52.690Z,11.70
2023-04-08T23:46:19.629Z,13.52
2023-04-08T23:48:46.676Z,12.45
2023-04-08T23:51:13.768Z,11.02
2023-04-08T23:53:42.006Z,13.07
2023-04-08T23:56:10.152Z,10.32
2023-04-08T23:58:37.241Z,10.52
